sensor_id;sensor_type;location;lat;lon;timestamp;temperature;humidity
49549;DHT22;35450;44.518;7.466;2023-04-06T00:00:00;8.10;71.80
49549;DHT22;35450;44.518;7.466;2023-04-06T00:03:04;8.20;71.80
49549;DHT22;35450;44.518;7.466;2023-04-06T00:06:08;8.10;72.20
49549;DHT22;35450;44.518;7.466;2023-04-06T00:09:12;8.10;72.90
49549;DHT22;35450;44.518;7.466;2023-04-06T00:12:16;8.00;72.40
49549;DHT22;35450;44.518;7.466;2023-04-06T00:15:20;8.10;72.70
49549;DHT22;35450;44.518;7.466;2023-04-06T00:18:24;8.10;72.70
49549;DHT22;35450;44.518;7.466;2023-04-06T00:21:28;7.90;72.40
49549;DHT22;35450;44.518;7.466;2023-04-06T00:24:32;7.80;73.00
49549;DHT22;35450;44.518;7.466;2023-04-06T00:27:37;7.80;73.00
49549;DHT22;35450;44.518;7.466;2023-04-06T00:30:41;7.80;73.20
49549;DHT22;35450;44.518;7.466;2023-04-06T00:33:45;7.90;73.00
49549;DHT22;35450;44.518;7.466;2023-04-06T00:36:49;8.00;73.10
49549;DHT22;35450;44.518;7.466;2023-04-06T00:39:53;7.90;72.90
49549;DHT22;35450;44.518;7.466;2023-04-06T00:42:58;7.80;73.20
49549;DHT22;35450;44.518;7.466;2023-04-06T00:46:02;7.80;73.20
49549;DHT22;35450;44.518;7.466;2023-04-06T00:49:06;7.80;72.90
49549;DHT22;35450;44.518;7.466;2023-04-06T00:52:10;7.60;72.90
49549;DHT22;35450;44.518;7.466;2023-04-06T00:55:15;7.70;73.30
49549;DHT22;35450;44.518;7.466;2023-04-06T00:58:20;7.60;73.40
49549;DHT22;35450;44.518;7.466;2023-04-06T01:01:30;7.60;73.60
49549;DHT22;35450;44.518;7.466;2023-04-06T01:04:40;7.70;73.50
49549;DHT22;35450;44.518;7.466;2023-04-06T01:07:48;7.60;72.60
49549;DHT22;35450;44.518;7.466;2023-04-06T01:10:58;7.50;72.70
49549;DHT22;35450;44.518;7.466;2023-04-06T01:14:06;7.50;72.90
49549;DHT22;35450;44.518;7.466;2023-04-06T01:17:22;7.60;72.90
49549;DHT22;35450;44.518;7.466;2023-04-06T01:20:27;7.60;72.90
49549;DHT22;35450;44.518;7.466;2023-04-06T01:23:31;7.50;73.00
49549;DHT22;35450;44.518;7.466;2023-04-06T01:26:36;7.40;73.30
49549;DHT22;35450;44.518;7.466;2023-04-06T01:29:44;7.60;73.30
49549;DHT22;35450;44.518;7.466;2023-04-06T01:33:02;7.60;73.30
49549;DHT22;35450;44.518;7.466;2023-04-06T01:36:31;7.40;73.80
49549;DHT22;35450;44.518;7.466;2023-04-06T01:39:46;7.50;73.60
49549;DHT22;35450;44.518;7.466;2023-04-06T01:42:57;7.40;73.70
49549;DHT22;35450;44.518;7.466;2023-04-06T01:46:09;7.40;73.80
49549;DHT22;35450;44.518;7.466;2023-04-06T01:49:17;7.50;73.90
49549;DHT22;35450;44.518;7.466;2023-04-06T01:52:25;7.40;73.80
49549;DHT22;35450;44.518;7.466;2023-04-06T01:55:31;7.20;74.30
49549;DHT22;35450;44.518;7.466;2023-04-06T01:58:55;7.30;74.40
49549;DHT22;35450;44.518;7.466;2023-04-06T02:02:00;7.30;74.00
49549;DHT22;35450;44.518;7.466;2023-04-06T02:05:05;7.30;73.90
49549;DHT22;35450;44.518;7.466;2023-04-06T02:08:09;7.30;74.00
49549;DHT22;35450;44.518;7.466;2023-04-06T02:11:15;7.20;74.20
49549;DHT22;35450;44.518;7.466;2023-04-06T02:14:28;7.10;74.80
49549;DHT22;35450;44.518;7.466;2023-04-06T02:17:36;7.20;74.60
49549;DHT22;35450;44.518;7.466;2023-04-06T02:20:40;7.20;74.50
49549;DHT22;35450;44.518;7.466;2023-04-06T02:23:44;7.30;74.10
49549;DHT22;35450;44.518;7.466;2023-04-06T02:26:48;7.20;74.00
49549;DHT22;35450;44.518;7.466;2023-04-06T02:29:52;7.30;74.20
49549;DHT22;35450;44.518;7.466;2023-04-06T02:32:58;7.30;73.40
49549;DHT22;35450;44.518;7.466;2023-04-06T02:36:02;7.30;73.60
49549;DHT22;35450;44.518;7.466;2023-04-06T02:39:07;7.20;74.00
49549;DHT22;35450;44.518;7.466;2023-04-06T02:42:11;7.20;74.00
49549;DHT22;35450;44.518;7.466;2023-04-06T02:45:15;7.20;73.70
49549;DHT22;35450;44.518;7.466;2023-04-06T02:48:23;7.20;73.60
49549;DHT22;35450;44.518;7.466;2023-04-06T02:51:27;7.20;72.90
49549;DHT22;35450;44.518;7.466;2023-04-06T02:54:37;7.20;72.80
49549;DHT22;35450;44.518;7.466;2023-04-06T02:57:41;7.10;73.20
49549;DHT22;35450;44.518;7.466;2023-04-06T03:00:45;7.10;73.40
49549;DHT22;35450;44.518;7.466;2023-04-06T03:03:50;7.00;73.70
49549;DHT22;35450;44.518;7.466;2023-04-06T03:07:00;7.00;73.50
49549;DHT22;35450;44.518;7.466;2023-04-06T03:10:12;7.00;73.50
49549;DHT22;35450;44.518;7.466;2023-04-06T03:13:16;7.00;73.60
49549;DHT22;35450;44.518;7.466;2023-04-06T03:16:29;7.10;73.70
49549;DHT22;35450;44.518;7.466;2023-04-06T03:19:33;6.90;73.80
49549;DHT22;35450;44.518;7.466;2023-04-06T03:22:39;6.90;74.00
49549;DHT22;35450;44.518;7.466;2023-04-06T03:25:46;6.90;73.80
49549;DHT22;35450;44.518;7.466;2023-04-06T03:28:54;6.90;73.90
49549;DHT22;35450;44.518;7.466;2023-04-06T03:32:03;7.00;74.50
49549;DHT22;35450;44.518;7.466;2023-04-06T03:35:11;6.60;75.20
49549;DHT22;35450;44.518;7.466;2023-04-06T03:38:15;6.70;75.30
49549;DHT22;35450;44.518;7.466;2023-04-06T03:41:19;6.80;75.20
49549;DHT22;35450;44.518;7.466;2023-04-06T03:44:32;6.80;75.10
49549;DHT22;35450;44.518;7.466;2023-04-06T03:47:36;6.90;75.00
49549;DHT22;35450;44.518;7.466;2023-04-06T03:50:43;6.90;74.90
49549;DHT22;35450;44.518;7.466;2023-04-06T03:53:47;6.90;74.60
49549;DHT22;35450;44.518;7.466;2023-04-06T03:56:51;6.90;74.20
49549;DHT22;35450;44.518;7.466;2023-04-06T03:59:55;6.90;74.30
49549;DHT22;35450;44.518;7.466;2023-04-06T04:03:02;6.90;74.20
49549;DHT22;35450;44.518;7.466;2023-04-06T04:06:07;6.80;74.00
49549;DHT22;35450;44.518;7.466;2023-04-06T04:09:10;6.60;74.30
49549;DHT22;35450;44.518;7.466;2023-04-06T04:12:14;6.60;74.90
49549;DHT22;35450;44.518;7.466;2023-04-06T04:15:20;6.60;74.40
49549;DHT22;35450;44.518;7.466;2023-04-06T04:18:25;6.50;74.50
49549;DHT22;35450;44.518;7.466;2023-04-06T04:21:30;6.50;74.60
49549;DHT22;35450;44.518;7.466;2023-04-06T04:24:37;6.40;74.70
49549;DHT22;35450;44.518;7.466;2023-04-06T04:27:41;6.50;74.40
49549;DHT22;35450;44.518;7.466;2023-04-06T04:30:46;6.30;74.70
49549;DHT22;35450;44.518;7.466;2023-04-06T04:33:50;6.40;74.90
49549;DHT22;35450;44.518;7.466;2023-04-06T04:37:01;6.30;74.90
49549;DHT22;35450;44.518;7.466;2023-04-06T04:40:20;6.50;74.90
49549;DHT22;35450;44.518;7.466;2023-04-06T04:43:32;6.40;74.90
49549;DHT22;35450;44.518;7.466;2023-04-06T04:46:37;6.50;74.90
49549;DHT22;35450;44.518;7.466;2023-04-06T04:49:42;6.40;74.90
49549;DHT22;35450;44.518;7.466;2023-04-06T04:52:48;6.40;74.90
49549;DHT22;35450;44.518;7.466;2023-04-06T04:55:57;6.40;75.00
49549;DHT22;35450;44.518;7.466;2023-04-06T04:59:04;6.20;75.20
49549;DHT22;35450;44.518;7.466;2023-04-06T05:02:12;6.30;75.10
49549;DHT22;35450;44.518;7.466;2023-04-06T05:05:29;6.30;75.00
49549;DHT22;35450;44.518;7.466;2023-04-06T05:08:34;6.30;75.10
49549;DHT22;35450;44.518;7.466;2023-04-06T05:11:39;6.30;75.00
49549;DHT22;35450;44.518;7.466;2023-04-06T05:14:44;6.30;75.20
49549;DHT22;35450;44.518;7.466;2023-04-06T05:17:52;6.40;74.80
49549;DHT22;35450;44.518;7.466;2023-04-06T05:21:02;6.40;75.00
49549;DHT22;35450;44.518;7.466;2023-04-06T05:24:15;6.30;74.90
49549;DHT22;35450;44.518;7.466;2023-04-06T05:27:21;6.40;74.90
49549;DHT22;35450;44.518;7.466;2023-04-06T05:30:26;6.50;74.60
49549;DHT22;35450;44.518;7.466;2023-04-06T05:33:30;6.50;74.50
49549;DHT22;35450;44.518;7.466;2023-04-06T05:36:42;6.50;74.80
49549;DHT22;35450;44.518;7.466;2023-04-06T05:39:55;6.40;74.80
49549;DHT22;35450;44.518;7.466;2023-04-06T05:43:00;6.50;74.90
49549;DHT22;35450;44.518;7.466;2023-04-06T05:46:04;6.50;75.20
49549;DHT22;35450;44.518;7.466;2023-04-06T05:49:08;6.50;75.40
49549;DHT22;35450;44.518;7.466;2023-04-06T05:52:13;6.60;75.40
49549;DHT22;35450;44.518;7.466;2023-04-06T05:55:21;6.70;75.10
49549;DHT22;35450;44.518;7.466;2023-04-06T05:58:31;6.60;75.60
49549;DHT22;35450;44.518;7.466;2023-04-06T06:01:37;6.80;75.30
49549;DHT22;35450;44.518;7.466;2023-04-06T06:04:42;6.90;75.90
49549;DHT22;35450;44.518;7.466;2023-04-06T06:07:47;6.90;76.40
49549;DHT22;35450;44.518;7.466;2023-04-06T06:10:51;7.10;76.10
49549;DHT22;35450;44.518;7.466;2023-04-06T06:13:59;7.10;75.90
49549;DHT22;35450;44.518;7.466;2023-04-06T06:17:03;7.10;75.70
49549;DHT22;35450;44.518;7.466;2023-04-06T06:20:07;7.20;76.30
49549;DHT22;35450;44.518;7.466;2023-04-06T06:23:11;7.30;76.20
49549;DHT22;35450;44.518;7.466;2023-04-06T06:26:15;7.30;76.60
49549;DHT22;35450;44.518;7.466;2023-04-06T06:29:20;7.20;76.90
49549;DHT22;35450;44.518;7.466;2023-04-06T06:32:24;7.30;76.70
49549;DHT22;35450;44.518;7.466;2023-04-06T06:35:30;7.40;76.30
49549;DHT22;35450;44.518;7.466;2023-04-06T06:38:37;7.40;75.60
49549;DHT22;35450;44.518;7.466;2023-04-06T06:41:42;7.50;75.00
49549;DHT22;35450;44.518;7.466;2023-04-06T06:44:47;7.60;74.70
49549;DHT22;35450;44.518;7.466;2023-04-06T06:47:51;7.60;74.40
49549;DHT22;35450;44.518;7.466;2023-04-06T06:50:55;7.70;74.20
49549;DHT22;35450;44.518;7.466;2023-04-06T06:53:59;7.70;73.50
49549;DHT22;35450;44.518;7.466;2023-04-06T06:57:03;7.80;73.30
49549;DHT22;35450;44.518;7.466;2023-04-06T07:00:08;7.90;73.40
49549;DHT22;35450;44.518;7.466;2023-04-06T07:03:13;7.90;72.90
49549;DHT22;35450;44.518;7.466;2023-04-06T07:06:17;7.90;72.90
49549;DHT22;35450;44.518;7.466;2023-04-06T07:09:21;8.00;73.10
49549;DHT22;35450;44.518;7.466;2023-04-06T07:12:25;8.10;71.40
49549;DHT22;35450;44.518;7.466;2023-04-06T07:15:30;8.00;70.70
49549;DHT22;35450;44.518;7.466;2023-04-06T07:18:34;8.10;70.00
49549;DHT22;35450;44.518;7.466;2023-04-06T07:21:38;8.20;70.80
49549;DHT22;35450;44.518;7.466;2023-04-06T07:24:42;8.20;71.30
49549;DHT22;35450;44.518;7.466;2023-04-06T07:27:46;8.30;70.60
49549;DHT22;35450;44.518;7.466;2023-04-06T07:30:52;8.30;71.10
49549;DHT22;35450;44.518;7.466;2023-04-06T07:33:59;8.40;70.70
49549;DHT22;35450;44.518;7.466;2023-04-06T07:37:03;8.50;70.00
49549;DHT22;35450;44.518;7.466;2023-04-06T07:40:07;8.40;70.00
49549;DHT22;35450;44.518;7.466;2023-04-06T07:43:12;8.40;70.50
49549;DHT22;35450;44.518;7.466;2023-04-06T07:46:16;8.50;70.70
49549;DHT22;35450;44.518;7.466;2023-04-06T07:49:20;8.50;70.50
49549;DHT22;35450;44.518;7.466;2023-04-06T07:52:25;8.50;70.60
49549;DHT22;35450;44.518;7.466;2023-04-06T07:55:29;8.50;70.70
49549;DHT22;35450;44.518;7.466;2023-04-06T07:58:33;8.50;70.60
49549;DHT22;35450;44.518;7.466;2023-04-06T08:01:37;8.70;70.70
49549;DHT22;35450;44.518;7.466;2023-04-06T08:04:41;8.70;70.40
49549;DHT22;35450;44.518;7.466;2023-04-06T08:07:45;8.80;69.90
49549;DHT22;35450;44.518;7.466;2023-04-06T08:10:49;8.90;69.80
49549;DHT22;35450;44.518;7.466;2023-04-06T08:13:54;8.90;70.40
49549;DHT22;35450;44.518;7.466;2023-04-06T08:17:00;9.00;70.30
49549;DHT22;35450;44.518;7.466;2023-04-06T08:20:04;9.00;70.00
49549;DHT22;35450;44.518;7.466;2023-04-06T08:23:08;9.10;70.10
49549;DHT22;35450;44.518;7.466;2023-04-06T08:26:13;9.20;69.90
49549;DHT22;35450;44.518;7.466;2023-04-06T08:29:17;9.30;69.80
49549;DHT22;35450;44.518;7.466;2023-04-06T08:32:21;9.20;70.40
49549;DHT22;35450;44.518;7.466;2023-04-06T08:35:26;9.10;70.30
49549;DHT22;35450;44.518;7.466;2023-04-06T08:38:30;9.20;68.90
49549;DHT22;35450;44.518;7.466;2023-04-06T08:41:34;9.20;67.90
49549;DHT22;35450;44.518;7.466;2023-04-06T08:44:38;9.20;68.30
49549;DHT22;35450;44.518;7.466;2023-04-06T08:47:45;9.30;67.90
49549;DHT22;35450;44.518;7.466;2023-04-06T08:50:51;9.40;67.00
49549;DHT22;35450;44.518;7.466;2023-04-06T08:53:56;9.40;66.50
49549;DHT22;35450;44.518;7.466;2023-04-06T08:57:02;9.40;66.20
49549;DHT22;35450;44.518;7.466;2023-04-06T09:00:07;9.50;66.50
49549;DHT22;35450;44.518;7.466;2023-04-06T09:03:14;9.50;66.10
49549;DHT22;35450;44.518;7.466;2023-04-06T09:06:18;9.60;65.30
49549;DHT22;35450;44.518;7.466;2023-04-06T09:09:22;9.40;65.00
49549;DHT22;35450;44.518;7.466;2023-04-06T09:12:30;9.40;65.50
49549;DHT22;35450;44.518;7.466;2023-04-06T09:15:35;9.20;66.80
49549;DHT22;35450;44.518;7.466;2023-04-06T09:18:39;9.40;67.20
49549;DHT22;35450;44.518;7.466;2023-04-06T09:21:44;9.50;66.50
49549;DHT22;35450;44.518;7.466;2023-04-06T09:24:54;9.60;66.30
49549;DHT22;35450;44.518;7.466;2023-04-06T09:28:00;9.70;65.70
49549;DHT22;35450;44.518;7.466;2023-04-06T09:31:04;9.70;65.40
49549;DHT22;35450;44.518;7.466;2023-04-06T09:34:08;9.70;65.90
49549;DHT22;35450;44.518;7.466;2023-04-06T09:37:23;9.80;65.90
49549;DHT22;35450;44.518;7.466;2023-04-06T09:40:27;9.80;66.20
49549;DHT22;35450;44.518;7.466;2023-04-06T09:43:32;9.90;65.50
49549;DHT22;35450;44.518;7.466;2023-04-06T09:46:41;9.90;65.70
49549;DHT22;35450;44.518;7.466;2023-04-06T09:49:47;9.80;66.60
49549;DHT22;35450;44.518;7.466;2023-04-06T09:52:54;10.00;65.50
49549;DHT22;35450;44.518;7.466;2023-04-06T09:56:02;10.00;66.40
49549;DHT22;35450;44.518;7.466;2023-04-06T09:59:10;9.80;66.90
49549;DHT22;35450;44.518;7.466;2023-04-06T10:02:48;10.00;66.00
49549;DHT22;35450;44.518;7.466;2023-04-06T10:06:01;10.20;65.00
49549;DHT22;35450;44.518;7.466;2023-04-06T10:09:09;10.20;64.10
49549;DHT22;35450;44.518;7.466;2023-04-06T10:12:14;10.30;64.80
49549;DHT22;35450;44.518;7.466;2023-04-06T10:15:18;10.40;64.40
49549;DHT22;35450;44.518;7.466;2023-04-06T10:18:23;10.50;63.80
49549;DHT22;35450;44.518;7.466;2023-04-06T10:21:27;10.60;63.40
49549;DHT22;35450;44.518;7.466;2023-04-06T10:24:32;10.60;63.20
49549;DHT22;35450;44.518;7.466;2023-04-06T10:27:36;10.70;62.90
49549;DHT22;35450;44.518;7.466;2023-04-06T10:30:42;10.60;63.00
49549;DHT22;35450;44.518;7.466;2023-04-06T10:34:02;10.60;63.70
49549;DHT22;35450;44.518;7.466;2023-04-06T10:37:14;10.70;63.10
49549;DHT22;35450;44.518;7.466;2023-04-06T10:40:23;10.80;62.70
49549;DHT22;35450;44.518;7.466;2023-04-06T10:43:33;10.90;63.00
49549;DHT22;35450;44.518;7.466;2023-04-06T10:46:41;10.80;62.90
49549;DHT22;35450;44.518;7.466;2023-04-06T10:49:55;10.80;62.80
49549;DHT22;35450;44.518;7.466;2023-04-06T10:53:01;10.70;63.30
49549;DHT22;35450;44.518;7.466;2023-04-06T10:56:09;10.80;63.90
49549;DHT22;35450;44.518;7.466;2023-04-06T10:59:19;10.80;63.20
49549;DHT22;35450;44.518;7.466;2023-04-06T11:02:24;10.50;64.70
49549;DHT22;35450;44.518;7.466;2023-04-06T11:05:28;10.50;64.50
49549;DHT22;35450;44.518;7.466;2023-04-06T11:08:33;10.70;64.40
49549;DHT22;35450;44.518;7.466;2023-04-06T11:11:38;10.70;64.90
49549;DHT22;35450;44.518;7.466;2023-04-06T11:14:53;10.90;64.50
49549;DHT22;35450;44.518;7.466;2023-04-06T11:17:57;10.90;64.10
49549;DHT22;35450;44.518;7.466;2023-04-06T11:21:02;10.80;63.70
49549;DHT22;35450;44.518;7.466;2023-04-06T11:27:23;11.00;64.40
49549;DHT22;35450;44.518;7.466;2023-04-06T11:30:29;11.00;63.10
49549;DHT22;35450;44.518;7.466;2023-04-06T11:33:39;11.00;64.90
49549;DHT22;35450;44.518;7.466;2023-04-06T11:36:44;11.00;63.90
49549;DHT22;35450;44.518;7.466;2023-04-06T11:39:50;11.10;63.40
49549;DHT22;35450;44.518;7.466;2023-04-06T11:42:55;11.20;64.10
49549;DHT22;35450;44.518;7.466;2023-04-06T11:46:01;11.30;64.20
49549;DHT22;35450;44.518;7.466;2023-04-06T11:49:06;11.30;63.40
49549;DHT22;35450;44.518;7.466;2023-04-06T11:52:19;11.30;63.30
49549;DHT22;35450;44.518;7.466;2023-04-06T11:55:23;11.30;62.90
49549;DHT22;35450;44.518;7.466;2023-04-06T11:58:27;11.40;63.00
49549;DHT22;35450;44.518;7.466;2023-04-06T12:01:34;11.40;63.70
49549;DHT22;35450;44.518;7.466;2023-04-06T12:04:39;11.30;63.60
49549;DHT22;35450;44.518;7.466;2023-04-06T12:07:44;11.20;63.70
49549;DHT22;35450;44.518;7.466;2023-04-06T12:10:49;11.10;64.00
49549;DHT22;35450;44.518;7.466;2023-04-06T12:13:53;11.30;64.80
49549;DHT22;35450;44.518;7.466;2023-04-06T12:16:58;11.50;63.30
49549;DHT22;35450;44.518;7.466;2023-04-06T12:20:02;11.60;63.20
49549;DHT22;35450;44.518;7.466;2023-04-06T12:23:07;11.70;62.50
49549;DHT22;35450;44.518;7.466;2023-04-06T12:26:11;11.80;62.80
49549;DHT22;35450;44.518;7.466;2023-04-06T12:29:15;11.90;62.60
49549;DHT22;35450;44.518;7.466;2023-04-06T12:32:19;11.90;62.30
49549;DHT22;35450;44.518;7.466;2023-04-06T12:35:23;11.70;63.40
49549;DHT22;35450;44.518;7.466;2023-04-06T12:38:27;11.70;62.10
49549;DHT22;35450;44.518;7.466;2023-04-06T12:41:31;11.90;61.70
49549;DHT22;35450;44.518;7.466;2023-04-06T12:44:35;12.00;62.00
49549;DHT22;35450;44.518;7.466;2023-04-06T12:47:39;12.10;61.90
49549;DHT22;35450;44.518;7.466;2023-04-06T12:50:43;12.20;61.40
49549;DHT22;35450;44.518;7.466;2023-04-06T12:53:47;12.20;61.30
49549;DHT22;35450;44.518;7.466;2023-04-06T12:56:51;12.00;61.40
49549;DHT22;35450;44.518;7.466;2023-04-06T12:59:56;11.90;61.80
49549;DHT22;35450;44.518;7.466;2023-04-06T13:03:00;12.00;62.10
49549;DHT22;35450;44.518;7.466;2023-04-06T13:06:05;12.10;62.10
49549;DHT22;35450;44.518;7.466;2023-04-06T13:09:09;12.20;61.50
49549;DHT22;35450;44.518;7.466;2023-04-06T13:12:12;12.30;61.30
49549;DHT22;35450;44.518;7.466;2023-04-06T13:15:17;12.40;60.90
49549;DHT22;35450;44.518;7.466;2023-04-06T13:18:21;12.30;60.90
49549;DHT22;35450;44.518;7.466;2023-04-06T13:21:26;12.30;62.50
49549;DHT22;35450;44.518;7.466;2023-04-06T13:24:30;12.40;61.20
49549;DHT22;35450;44.518;7.466;2023-04-06T13:27:34;12.40;61.00
49549;DHT22;35450;44.518;7.466;2023-04-06T13:30:39;12.50;61.80
49549;DHT22;35450;44.518;7.466;2023-04-06T13:33:44;12.20;61.10
49549;DHT22;35450;44.518;7.466;2023-04-06T13:36:47;11.90;63.10
49549;DHT22;35450;44.518;7.466;2023-04-06T13:39:51;12.20;62.50
49549;DHT22;35450;44.518;7.466;2023-04-06T13:42:55;12.20;61.80
49549;DHT22;35450;44.518;7.466;2023-04-06T13:46:00;12.40;61.90
49549;DHT22;35450;44.518;7.466;2023-04-06T13:49:05;12.40;61.40
49549;DHT22;35450;44.518;7.466;2023-04-06T13:52:09;12.50;61.10
49549;DHT22;35450;44.518;7.466;2023-04-06T13:55:14;12.50;60.90
49549;DHT22;35450;44.518;7.466;2023-04-06T13:58:18;12.60;61.00
49549;DHT22;35450;44.518;7.466;2023-04-06T14:01:22;12.50;60.90
49549;DHT22;35450;44.518;7.466;2023-04-06T14:04:26;12.40;61.00
49549;DHT22;35450;44.518;7.466;2023-04-06T14:07:30;12.50;61.50
49549;DHT22;35450;44.518;7.466;2023-04-06T14:10:41;12.50;60.80
49549;DHT22;35450;44.518;7.466;2023-04-06T14:13:45;12.60;61.30
49549;DHT22;35450;44.518;7.466;2023-04-06T14:16:50;12.50;60.70
49549;DHT22;35450;44.518;7.466;2023-04-06T14:19:54;12.30;62.70
49549;DHT22;35450;44.518;7.466;2023-04-06T14:23:02;12.30;62.00
49549;DHT22;35450;44.518;7.466;2023-04-06T14:26:08;12.20;61.50
49549;DHT22;35450;44.518;7.466;2023-04-06T14:29:12;12.10;63.70
49549;DHT22;35450;44.518;7.466;2023-04-06T14:32:16;12.20;63.10
49549;DHT22;35450;44.518;7.466;2023-04-06T14:35:21;12.20;62.30
49549;DHT22;35450;44.518;7.466;2023-04-06T14:38:25;12.30;62.80
49549;DHT22;35450;44.518;7.466;2023-04-06T14:41:29;12.50;61.90
49549;DHT22;35450;44.518;7.466;2023-04-06T14:44:33;12.50;63.10
49549;DHT22;35450;44.518;7.466;2023-04-06T14:47:40;12.40;63.70
49549;DHT22;35450;44.518;7.466;2023-04-06T14:50:56;12.60;62.20
49549;DHT22;35450;44.518;7.466;2023-04-06T14:54:01;12.40;62.50
49549;DHT22;35450;44.518;7.466;2023-04-06T14:57:09;12.50;63.30
49549;DHT22;35450;44.518;7.466;2023-04-06T15:00:13;12.60;62.20
49549;DHT22;35450;44.518;7.466;2023-04-06T15:03:18;12.80;62.20
49549;DHT22;35450;44.518;7.466;2023-04-06T15:06:22;13.00;61.50
49549;DHT22;35450;44.518;7.466;2023-04-06T15:09:26;13.10;60.70
49549;DHT22;35450;44.518;7.466;2023-04-06T15:12:30;13.30;60.30
49549;DHT22;35450;44.518;7.466;2023-04-06T15:15:34;13.40;60.80
49549;DHT22;35450;44.518;7.466;2023-04-06T15:18:39;13.30;60.20
49549;DHT22;35450;44.518;7.466;2023-04-06T15:21:42;13.50;60.10
49549;DHT22;35450;44.518;7.466;2023-04-06T15:24:46;13.60;60.80
49549;DHT22;35450;44.518;7.466;2023-04-06T15:27:52;13.40;60.20
49549;DHT22;35450;44.518;7.466;2023-04-06T15:30:57;13.40;61.30
49549;DHT22;35450;44.518;7.466;2023-04-06T15:34:01;13.20;62.50
49549;DHT22;35450;44.518;7.466;2023-04-06T15:37:05;13.30;61.50
49549;DHT22;35450;44.518;7.466;2023-04-06T15:40:11;13.50;60.40
49549;DHT22;35450;44.518;7.466;2023-04-06T15:43:17;13.60;59.80
49549;DHT22;35450;44.518;7.466;2023-04-06T15:46:21;13.70;59.40
49549;DHT22;35450;44.518;7.466;2023-04-06T15:49:26;13.80;60.00
49549;DHT22;35450;44.518;7.466;2023-04-06T15:52:30;13.70;61.50
49549;DHT22;35450;44.518;7.466;2023-04-06T15:55:34;13.90;59.90
49549;DHT22;35450;44.518;7.466;2023-04-06T15:58:39;14.00;59.70
49549;DHT22;35450;44.518;7.466;2023-04-06T16:01:44;14.20;60.40
49549;DHT22;35450;44.518;7.466;2023-04-06T16:04:49;14.50;58.30
49549;DHT22;35450;44.518;7.466;2023-04-06T16:07:56;14.80;57.80
49549;DHT22;35450;44.518;7.466;2023-04-06T16:11:01;15.40;57.10
49549;DHT22;35450;44.518;7.466;2023-04-06T16:14:06;16.10;56.30
49549;DHT22;35450;44.518;7.466;2023-04-06T16:17:11;16.10;56.80
49549;DHT22;35450;44.518;7.466;2023-04-06T16:20:16;15.70;56.60
49549;DHT22;35450;44.518;7.466;2023-04-06T16:23:20;15.20;57.40
49549;DHT22;35450;44.518;7.466;2023-04-06T16:26:24;14.60;58.50
49549;DHT22;35450;44.518;7.466;2023-04-06T16:29:30;14.20;59.80
49549;DHT22;35450;44.518;7.466;2023-04-06T16:32:35;14.00;60.30
49549;DHT22;35450;44.518;7.466;2023-04-06T16:35:43;13.90;60.10
49549;DHT22;35450;44.518;7.466;2023-04-06T16:38:48;13.70;61.10
49549;DHT22;35450;44.518;7.466;2023-04-06T16:41:52;13.60;61.90
49549;DHT22;35450;44.518;7.466;2023-04-06T16:44:56;13.50;61.50
49549;DHT22;35450;44.518;7.466;2023-04-06T16:48:00;13.60;61.20
49549;DHT22;35450;44.518;7.466;2023-04-06T16:51:05;13.70;60.70
49549;DHT22;35450;44.518;7.466;2023-04-06T16:54:10;13.70;61.00
49549;DHT22;35450;44.518;7.466;2023-04-06T16:57:14;13.70;61.10
49549;DHT22;35450;44.518;7.466;2023-04-06T17:00:18;13.70;61.10
49549;DHT22;35450;44.518;7.466;2023-04-06T17:03:22;13.50;63.30
49549;DHT22;35450;44.518;7.466;2023-04-06T17:06:26;13.30;65.30
49549;DHT22;35450;44.518;7.466;2023-04-06T17:09:30;13.10;63.50
49549;DHT22;35450;44.518;7.466;2023-04-06T17:12:35;13.00;63.90
49549;DHT22;35450;44.518;7.466;2023-04-06T17:15:39;12.90;64.30
49549;DHT22;35450;44.518;7.466;2023-04-06T17:18:46;12.90;63.90
49549;DHT22;35450;44.518;7.466;2023-04-06T17:21:50;12.80;63.50
49549;DHT22;35450;44.518;7.466;2023-04-06T17:24:54;12.70;63.50
49549;DHT22;35450;44.518;7.466;2023-04-06T17:27:57;12.70;64.30
49549;DHT22;35450;44.518;7.466;2023-04-06T17:31:07;12.70;66.10
49549;DHT22;35450;44.518;7.466;2023-04-06T17:34:12;12.60;65.90
49549;DHT22;35450;44.518;7.466;2023-04-06T17:37:16;12.40;65.90
49549;DHT22;35450;44.518;7.466;2023-04-06T17:40:20;12.40;66.40
49549;DHT22;35450;44.518;7.466;2023-04-06T17:43:24;12.40;67.00
49549;DHT22;35450;44.518;7.466;2023-04-06T17:46:28;12.50;67.20
49549;DHT22;35450;44.518;7.466;2023-04-06T17:49:32;12.50;65.80
49549;DHT22;35450;44.518;7.466;2023-04-06T17:52:36;12.30;65.50
49549;DHT22;35450;44.518;7.466;2023-04-06T17:55:41;12.30;66.20
49549;DHT22;35450;44.518;7.466;2023-04-06T17:58:44;12.20;66.00
49549;DHT22;35450;44.518;7.466;2023-04-06T18:01:48;12.10;65.90
49549;DHT22;35450;44.518;7.466;2023-04-06T18:04:52;12.10;65.50
49549;DHT22;35450;44.518;7.466;2023-04-06T18:07:58;12.10;65.90
49549;DHT22;35450;44.518;7.466;2023-04-06T18:11:02;11.90;65.90
49549;DHT22;35450;44.518;7.466;2023-04-06T18:14:07;11.80;66.30
49549;DHT22;35450;44.518;7.466;2023-04-06T18:17:11;11.70;66.50
49549;DHT22;35450;44.518;7.466;2023-04-06T18:20:16;11.70;66.70
49549;DHT22;35450;44.518;7.466;2023-04-06T18:23:20;11.60;66.90
49549;DHT22;35450;44.518;7.466;2023-04-06T18:26:23;11.50;66.90
49549;DHT22;35450;44.518;7.466;2023-04-06T18:29:28;11.50;67.00
49549;DHT22;35450;44.518;7.466;2023-04-06T18:32:32;11.40;67.20
49549;DHT22;35450;44.518;7.466;2023-04-06T18:35:36;11.40;67.50
49549;DHT22;35450;44.518;7.466;2023-04-06T18:38:42;11.40;67.40
49549;DHT22;35450;44.518;7.466;2023-04-06T18:41:47;11.40;67.10
49549;DHT22;35450;44.518;7.466;2023-04-06T18:44:51;11.40;67.00
49549;DHT22;35450;44.518;7.466;2023-04-06T18:47:55;11.40;67.30
49549;DHT22;35450;44.518;7.466;2023-04-06T18:50:59;11.30;67.50
49549;DHT22;35450;44.518;7.466;2023-04-06T18:54:06;11.20;68.00
49549;DHT22;35450;44.518;7.466;2023-04-06T18:57:10;11.20;68.40
49549;DHT22;35450;44.518;7.466;2023-04-06T19:00:14;11.20;67.70
49549;DHT22;35450;44.518;7.466;2023-04-06T19:03:19;11.20;67.90
49549;DHT22;35450;44.518;7.466;2023-04-06T19:06:23;11.10;68.10
49549;DHT22;35450;44.518;7.466;2023-04-06T19:09:27;10.90;68.60
49549;DHT22;35450;44.518;7.466;2023-04-06T19:12:36;10.90;68.70
49549;DHT22;35450;44.518;7.466;2023-04-06T19:15:39;10.70;68.80
49549;DHT22;35450;44.518;7.466;2023-04-06T19:18:46;10.80;69.20
49549;DHT22;35450;44.518;7.466;2023-04-06T19:21:50;10.80;69.00
49549;DHT22;35450;44.518;7.466;2023-04-06T19:24:53;10.80;69.10
49549;DHT22;35450;44.518;7.466;2023-04-06T19:27:57;10.80;69.10
49549;DHT22;35450;44.518;7.466;2023-04-06T19:31:02;10.80;69.40
49549;DHT22;35450;44.518;7.466;2023-04-06T19:34:06;10.60;69.00
49549;DHT22;35450;44.518;7.466;2023-04-06T19:37:10;10.60;69.40
49549;DHT22;35450;44.518;7.466;2023-04-06T19:40:14;10.60;69.60
49549;DHT22;35450;44.518;7.466;2023-04-06T19:43:19;10.50;69.50